Time;durP1;ratioP1;P1;durP2;ratioP2;P2;SDS_P1;SDS_P2;PMS_P1;PMS_P2;Temp;Humidity;BMP_temperature;BMP_pressure;BME280_temperature;BME280_humidity;BME280_pressure;Samples;Min_cycle;Max_cycle;Signal;HPM_P1;HPM_P2
2023/08/17 00:00:53;;;;;;;3.38;2.20;;;24.00;88.10;;;;;;5092635;28;20464;-71
2023/08/17 00:03:20;;;;;;;4.20;2.17;;;24.00;88.40;;;;;;5068653;28;20408;-72
2023/08/17 00:05:47;;;;;;;6.93;2.00;;;24.00;89.20;;;;;;5085605;28;20556;-72
2023/08/17 00:08:13;;;;;;;3.40;1.92;;;24.00;89.20;;;;;;5081569;28;20411;-72
2023/08/17 00:10:39;;;;;;;3.38;2.00;;;23.90;88.20;;;;;;5083498;28;20422;-71
2023/08/17 00:13:05;;;;;;;3.45;2.00;;;23.90;88.60;;;;;;5092270;27;20409;-71
2023/08/17 00:15:32;;;;;;;2.30;1.80;;;23.90;88.40;;;;;;5099402;27;20477;-71
2023/08/17 00:17:58;;;;;;;3.37;2.03;;;23.80;87.50;;;;;;5081978;28;20488;-71
2023/08/17 00:20:24;;;;;;;2.78;1.70;;;23.80;88.20;;;;;;5086980;28;20406;-71
2023/08/17 00:22:51;;;;;;;3.47;1.80;;;23.90;88.40;;;;;;5064309;28;20459;-71
2023/08/17 00:25:17;;;;;;;4.32;1.70;;;23.90;87.40;;;;;;5083875;27;20407;-71
2023/08/17 00:27:43;;;;;;;4.38;1.50;;;23.80;85.50;;;;;;5097128;28;20405;-71
2023/08/17 00:30:10;;;;;;;2.30;1.15;;;23.80;85.10;;;;;;5087532;28;21303;-71
2023/08/17 00:32:36;;;;;;;2.30;1.00;;;23.90;83.80;;;;;;5066645;28;20409;-71
2023/08/17 00:35:03;;;;;;;1.92;1.00;;;23.80;82.30;;;;;;5079803;28;20419;-71
2023/08/17 00:37:29;;;;;;;2.72;1.05;;;23.90;83.20;;;;;;5083974;28;20800;-71
2023/08/17 00:39:55;;;;;;;2.47;1.23;;;23.90;80.00;;;;;;5074013;28;20409;-71
2023/08/17 00:42:22;;;;;;;1.40;0.95;;;23.80;80.70;;;;;;5080713;28;20437;-71
2023/08/17 00:44:48;;;;;;;2.08;0.90;;;23.80;78.60;;;;;;5101037;27;20483;-71
2023/08/17 00:47:15;;;;;;;1.88;0.82;;;23.80;75.90;;;;;;5085143;28;20409;-71
2023/08/17 00:49:41;;;;;;;4.78;1.23;;;23.90;77.70;;;;;;5080374;28;20481;-71
2023/08/17 00:52:07;;;;;;;3.47;1.02;;;23.90;77.00;;;;;;5099058;28;20416;-72
2023/08/17 00:54:34;;;;;;;3.58;1.13;;;23.90;76.00;;;;;;5085655;28;20978;-72
2023/08/17 00:57:01;;;;;;;2.25;1.10;;;23.80;74.50;;;;;;5099904;28;20426;-71
2023/08/17 00:59:28;;;;;;;2.70;1.08;;;23.80;73.30;;;;;;5100131;28;20452;-71
2023/08/17 01:01:55;;;;;;;2.70;0.90;;;23.80;74.70;;;;;;5065385;28;21122;-71
2023/08/17 01:04:21;;;;;;;2.83;1.10;;;23.80;74.10;;;;;;5092835;28;21000;-71
2023/08/17 01:06:47;;;;;;;1.65;0.80;;;23.80;74.10;;;;;;5064974;28;21104;-71
2023/08/17 01:09:14;;;;;;;2.03;0.95;;;23.80;74.30;;;;;;5075318;27;20422;-71
2023/08/17 01:12:02;;;;;;;3.33;1.00;;;23.80;74.80;;;;;;5069089;28;20907;-71
2023/08/17 01:14:42;;;;;;;2.65;1.00;;;23.80;73.90;;;;;;5096096;28;20937;-72
2023/08/17 01:17:52;;;;;;;1.65;0.90;;;23.80;73.00;;;;;;5098197;27;20418;-72
2023/08/17 01:20:21;;;;;;;5.53;1.00;;;23.80;73.40;;;;;;5095125;27;21398;-72
2023/08/17 01:22:56;;;;;;;2.53;0.93;;;23.80;72.30;;;;;;5081126;28;20462;-72
2023/08/17 01:25:23;;;;;;;1.87;0.97;;;23.80;71.20;;;;;;5102539;28;20435;-72
2023/08/17 01:27:50;;;;;;;2.47;0.93;;;23.80;70.80;;;;;;5079908;28;20417;-71
2023/08/17 01:30:18;;;;;;;2.47;0.73;;;23.80;70.90;;;;;;5081875;27;20832;-71
2023/08/17 01:33:33;;;;;;;2.67;0.75;;;23.80;71.40;;;;;;5087094;28;20476;-72
2023/08/17 01:36:26;;;;;;;1.80;0.80;;;23.80;70.30;;;;;;5005855;28;20438;-72
2023/08/17 01:38:56;;;;;;;3.20;1.00;;;23.80;70.60;;;;;;5001752;28;20427;-72
2023/08/17 01:41:24;;;;;;;4.30;1.02;;;23.90;71.20;;;;;;5076994;28;20744;-72
2023/08/17 01:43:51;;;;;;;5.25;1.20;;;23.90;71.90;;;;;;5079037;28;20813;-72
2023/08/17 01:46:18;;;;;;;3.23;1.10;;;23.90;71.90;;;;;;5075918;28;20427;-72
2023/08/17 01:48:46;;;;;;;4.57;1.25;;;23.90;73.40;;;;;;5077517;28;20964;-72
2023/08/17 01:51:22;;;;;;;2.35;1.30;;;23.90;76.00;;;;;;5082248;28;20404;-72
2023/08/17 01:53:48;;;;;;;2.87;1.47;;;23.90;74.40;;;;;;5064380;28;20416;-74
2023/08/17 01:56:15;;;;;;;3.88;1.35;;;24.00;75.10;;;;;;5090016;28;20968;-74
2023/08/17 01:58:41;;;;;;;3.97;1.40;;;24.00;76.00;;;;;;5098109;28;20412;-74
2023/08/17 02:01:08;;;;;;;4.43;1.30;;;24.00;75.90;;;;;;5093995;27;20456;-73
2023/08/17 02:03:34;;;;;;;2.60;1.20;;;23.90;75.40;;;;;;5102255;27;20416;-73
2023/08/17 02:06:01;;;;;;;3.60;1.60;;;23.90;75.10;;;;;;5098118;27;20777;-73
2023/08/17 02:08:27;;;;;;;3.35;1.30;;;23.90;75.00;;;;;;5072567;28;20543;-73
2023/08/17 02:10:54;;;;;;;3.60;1.13;;;23.90;75.30;;;;;;5093946;27;20422;-73
2023/08/17 02:13:21;;;;;;;3.17;1.30;;;23.90;75.70;;;;;;5095019;27;20496;-73
2023/08/17 02:15:48;;;;;;;3.15;1.42;;;23.80;75.70;;;;;;5073766;28;20404;-73
2023/08/17 02:18:15;;;;;;;3.30;1.50;;;23.80;76.20;;;;;;5063164;28;20438;-73
2023/08/17 02:20:41;;;;;;;3.28;1.42;;;23.80;76.10;;;;;;5057938;28;20420;-73
2023/08/17 02:23:10;;;;;;;2.95;1.60;;;23.90;76.20;;;;;;5066741;28;21158;-73
2023/08/17 02:25:39;;;;;;;4.10;1.70;;;23.90;78.10;;;;;;5065980;28;20417;-73
2023/08/17 02:28:06;;;;;;;4.65;2.00;;;23.90;79.40;;;;;;5100254;28;20841;-73
2023/08/17 02:30:32;;;;;;;6.20;2.30;;;23.90;80.50;;;;;;5074334;28;20402;-73
2023/08/17 02:32:59;;;;;;;3.30;1.73;;;23.90;81.80;;;;;;5067259;28;20398;-73
2023/08/17 02:35:28;;;;;;;5.28;2.47;;;24.00;81.60;;;;;;5076811;28;20411;-73
2023/08/17 02:38:02;;;;;;;5.93;2.40;;;24.00;83.40;;;;;;5068923;28;20556;-72
2023/08/17 02:40:28;;;;;;;5.40;2.40;;;24.00;84.60;;;;;;5073115;28;20402;-72
2023/08/17 02:42:57;;;;;;;5.90;2.50;;;24.10;85.80;;;;;;5075528;28;20941;-72
2023/08/17 02:45:23;;;;;;;5.65;2.78;;;24.10;85.90;;;;;;5079514;28;20435;-73
2023/08/17 02:47:50;;;;;;;6.43;2.42;;;24.10;86.70;;;;;;5074652;28;20412;-72
2023/08/17 02:50:19;;;;;;;7.53;2.80;;;24.20;87.00;;;;;;5084891;28;20412;-72
2023/08/17 02:52:48;;;;;;;9.75;2.80;;;24.20;88.70;;;;;;5096567;28;20529;-72
2023/08/17 02:55:14;;;;;;;8.25;2.63;;;24.20;89.10;;;;;;5093952;28;20501;-73
2023/08/17 02:57:43;;;;;;;6.15;2.60;;;24.20;89.70;;;;;;5071977;28;20608;-72
2023/08/17 03:00:11;;;;;;;6.53;2.80;;;24.10;89.90;;;;;;5080777;28;20407;-73
2023/08/17 03:02:37;;;;;;;8.27;3.47;;;24.10;90.40;;;;;;5091811;28;20405;-73
2023/08/17 03:05:04;;;;;;;9.57;3.13;;;24.10;90.60;;;;;;5098180;28;20849;-72
2023/08/17 03:07:30;;;;;;;5.80;2.70;;;24.10;90.60;;;;;;5081950;28;20912;-73
2023/08/17 03:10:00;;;;;;;11.10;2.97;;;24.10;90.70;;;;;;5085503;28;20409;-72
2023/08/17 03:12:26;;;;;;;13.05;3.25;;;24.10;91.30;;;;;;5067483;28;20491;-72
2023/08/17 03:14:54;;;;;;;7.50;2.85;;;24.10;91.20;;;;;;5078534;28;20701;-72
2023/08/17 03:17:20;;;;;;;8.95;3.40;;;24.10;91.70;;;;;;5100505;28;20408;-72
2023/08/17 03:19:49;;;;;;;11.32;3.47;;;24.10;91.90;;;;;;5057470;28;20497;-73
2023/08/17 03:22:15;;;;;;;7.07;2.80;;;24.10;92.20;;;;;;5094351;28;20413;-72
2023/08/17 03:24:41;;;;;;;7.25;2.97;;;24.10;92.10;;;;;;5099494;28;20411;-72
2023/08/17 03:27:08;;;;;;;8.32;3.10;;;24.00;91.80;;;;;;5064856;28;20408;-73
2023/08/17 03:29:34;;;;;;;9.02;3.28;;;24.00;91.80;;;;;;5077527;28;20410;-73
2023/08/17 03:32:00;;;;;;;6.80;2.87;;;24.00;92.20;;;;;;5091196;28;20444;-73
2023/08/17 03:34:26;;;;;;;8.27;2.93;;;24.00;92.30;;;;;;5064663;28;20590;-73
2023/08/17 03:36:56;;;;;;;11.13;2.95;;;24.00;92.40;;;;;;5093895;28;20508;-72
2023/08/17 03:39:25;;;;;;;12.75;3.05;;;24.00;92.40;;;;;;5088350;28;20412;-72
2023/08/17 03:41:51;;;;;;;10.25;3.10;;;24.00;92.70;;;;;;5081624;28;20420;-72
2023/08/17 03:44:18;;;;;;;8.52;3.20;;;24.00;92.60;;;;;;5070996;27;20413;-72
2023/08/17 03:46:44;;;;;;;7.23;2.90;;;24.00;92.60;;;;;;5083079;28;20419;-72
2023/08/17 03:49:18;;;;;;;12.60;3.17;;;24.00;92.80;;;;;;5071020;28;20966;-73
2023/08/17 03:51:44;;;;;;;9.27;2.83;;;24.00;93.10;;;;;;5079851;28;20429;-72
2023/08/17 03:54:13;;;;;;;9.35;3.33;;;24.00;93.10;;;;;;5101224;28;20417;-72
2023/08/17 03:56:42;;;;;;;12.70;3.22;;;23.90;93.30;;;;;;5068344;28;20787;-72
2023/08/17 03:59:08;;;;;;;10.23;3.03;;;23.90;93.70;;;;;;5094641;28;20463;-72
2023/08/17 04:01:35;;;;;;;7.20;3.33;;;24.00;93.80;;;;;;5081789;28;20404;-72
2023/08/17 04:04:02;;;;;;;9.52;3.95;;;24.00;94.70;;;;;;5068029;28;20426;-72
2023/08/17 04:06:29;;;;;;;8.30;3.57;;;24.00;95.00;;;;;;5095825;27;20404;-73
2023/08/17 04:08:55;;;;;;;8.45;3.33;;;24.00;95.10;;;;;;5099528;28;20452;-73
2023/08/17 04:11:21;;;;;;;9.07;3.53;;;24.00;95.10;;;;;;5099275;28;20601;-73
2023/08/17 04:13:50;;;;;;;8.27;3.40;;;24.00;95.10;;;;;;5100382;28;20459;-73
2023/08/17 04:16:17;;;;;;;11.35;3.83;;;24.10;95.40;;;;;;5070737;28;20406;-73
2023/08/17 04:18:43;;;;;;;12.48;3.90;;;24.10;95.60;;;;;;5086142;28;20422;-72
2023/08/17 04:21:09;;;;;;;11.40;3.90;;;24.10;96.00;;;;;;5087208;28;20407;-72
2023/08/17 04:23:35;;;;;;;9.65;3.70;;;24.10;96.10;;;;;;5067778;27;20774;-72
2023/08/17 04:26:02;;;;;;;8.40;3.72;;;24.10;96.90;;;;;;5085316;28;20496;-73
2023/08/17 04:28:28;;;;;;;9.43;3.67;;;24.20;97.00;;;;;;5095977;28;20438;-73
2023/08/17 04:30:54;;;;;;;8.25;3.63;;;24.20;96.70;;;;;;5088616;28;20411;-73
2023/08/17 04:33:23;;;;;;;7.72;3.72;;;24.20;96.60;;;;;;5070972;28;20401;-73
2023/08/17 04:35:49;;;;;;;10.35;3.85;;;24.20;96.80;;;;;;5071105;28;20806;-73
2023/08/17 04:38:15;;;;;;;6.93;3.50;;;24.30;97.10;;;;;;5095599;28;20412;-72
2023/08/17 04:40:45;;;;;;;7.13;3.70;;;24.30;97.30;;;;;;5079849;28;21179;-72
2023/08/17 04:43:12;;;;;;;7.30;3.90;;;24.30;97.90;;;;;;5083332;28;20785;-72
2023/08/17 04:45:38;;;;;;;9.18;3.83;;;24.30;98.20;;;;;;5096587;28;21153;-73
2023/08/17 04:48:06;;;;;;;6.57;3.50;;;24.40;98.60;;;;;;5075972;28;20400;-72
2023/08/17 04:50:32;;;;;;;6.47;3.78;;;24.40;98.60;;;;;;5100875;28;20457;-73
2023/08/17 04:52:58;;;;;;;6.72;4.13;;;24.40;98.80;;;;;;5067411;28;20416;-72
2023/08/17 04:55:25;;;;;;;9.52;4.40;;;24.50;99.50;;;;;;5098889;28;20419;-73
2023/08/17 04:57:51;;;;;;;7.67;4.70;;;24.50;99.80;;;;;;5088226;28;20412;-73
2023/08/17 05:00:20;;;;;;;9.17;5.20;;;24.50;99.90;;;;;;5087570;28;20967;-73
2023/08/17 05:02:46;;;;;;;8.57;4.97;;;24.50;99.90;;;;;;5074172;28;20504;-73
2023/08/17 05:05:13;;;;;;;8.52;4.90;;;24.60;99.90;;;;;;5071793;28;20954;-73
2023/08/17 05:07:39;;;;;;;9.85;5.38;;;24.70;99.90;;;;;;5077663;28;20424;-72
2023/08/17 05:10:06;;;;;;;9.77;5.32;;;24.70;99.90;;;;;;5097699;28;20856;-72
2023/08/17 05:12:32;;;;;;;8.52;5.53;;;24.70;99.90;;;;;;5082690;28;20400;-72
2023/08/17 05:14:58;;;;;;;11.38;5.72;;;24.70;99.90;;;;;;5088276;28;20412;-72
2023/08/17 05:17:25;;;;;;;10.55;6.28;;;24.80;99.90;;;;;;5080112;28;20415;-72
2023/08/17 05:19:51;;;;;;;10.13;6.30;;;24.90;99.90;;;;;;5069311;28;20836;-72
2023/08/17 05:22:18;;;;;;;12.18;6.75;;;24.90;99.90;;;;;;5101045;28;20412;-72
2023/08/17 05:24:44;;;;;;;11.55;6.65;;;25.00;99.90;;;;;;5066887;28;20430;-72
2023/08/17 05:27:10;;;;;;;9.38;6.50;;;25.00;99.90;;;;;;5078206;28;20402;-73
2023/08/17 05:29:37;;;;;;;13.10;6.18;;;25.10;99.90;;;;;;5079929;28;20410;-73
2023/08/17 05:32:03;;;;;;;10.73;6.40;;;25.10;99.90;;;;;;5082670;28;20460;-73
2023/08/17 05:34:30;;;;;;;10.80;6.70;;;25.10;99.90;;;;;;5086597;28;20412;-73
2023/08/17 05:36:56;;;;;;;13.18;7.05;;;25.10;99.90;;;;;;5093414;28;20444;-73
2023/08/17 05:39:23;;;;;;;12.30;7.80;;;25.20;99.90;;;;;;5081195;28;20956;-72
2023/08/17 05:41:49;;;;;;;13.15;7.97;;;25.30;99.90;;;;;;5114579;27;20414;-72
2023/08/17 05:44:17;;;;;;;16.65;7.90;;;25.30;99.90;;;;;;5094658;28;20416;-72
2023/08/17 05:46:47;;;;;;;11.75;7.55;;;25.40;99.90;;;;;;5095280;27;20406;-72
2023/08/17 05:49:16;;;;;;;12.57;8.53;;;25.40;99.90;;;;;;5080141;28;20418;-72
2023/08/17 05:51:42;;;;;;;16.25;9.10;;;25.50;99.90;;;;;;5085799;28;20736;-72
2023/08/17 05:54:08;;;;;;;16.92;10.07;;;25.60;99.90;;;;;;5099926;28;20454;-73
2023/08/17 05:56:35;;;;;;;16.67;11.80;;;25.70;99.90;;;;;;5067316;28;20408;-73
2023/08/17 05:59:04;;;;;;;20.85;12.60;;;25.80;99.90;;;;;;5081883;28;20884;-73
2023/08/17 06:01:31;;;;;;;21.58;12.73;;;25.90;99.90;;;;;;5075052;28;20453;-73
2023/08/17 06:03:57;;;;;;;19.73;12.77;;;25.90;99.90;;;;;;5072330;28;21211;-73
2023/08/17 06:06:28;;;;;;;17.90;12.33;;;26.00;99.90;;;;;;5077171;28;20419;-73
2023/08/17 06:08:56;;;;;;;19.85;13.02;;;26.10;99.90;;;;;;5094631;28;20423;-73
2023/08/17 06:11:32;;;;;;;21.27;13.02;;;26.10;99.90;;;;;;5058058;28;20469;-72
2023/08/17 06:13:58;;;;;;;18.10;12.93;;;26.20;99.90;;;;;;5072706;28;20419;-72
2023/08/17 06:16:25;;;;;;;22.58;13.30;;;26.20;99.90;;;;;;5096919;28;20400;-73
2023/08/17 06:18:51;;;;;;;17.97;12.10;;;26.30;99.90;;;;;;5097438;28;20424;-73
2023/08/17 06:21:17;;;;;;;19.92;12.50;;;26.30;99.90;;;;;;5085555;28;20782;-73
2023/08/17 06:23:44;;;;;;;19.00;12.30;;;26.30;99.90;;;;;;5083699;28;20493;-72
2023/08/17 06:26:13;;;;;;;18.00;12.10;;;26.30;99.90;;;;;;5083907;28;20412;-72
2023/08/17 06:28:43;;;;;;;21.00;12.60;;;26.40;99.90;;;;;;5089040;28;20603;-72
2023/08/17 06:31:09;;;;;;;18.50;12.27;;;26.50;99.90;;;;;;5080352;28;20931;-73
2023/08/17 06:33:42;;;;;;;22.30;12.32;;;26.50;99.90;;;;;;5100342;27;20414;-72
2023/08/17 06:36:09;;;;;;;16.17;11.15;;;26.60;99.90;;;;;;5084469;28;20424;-72
2023/08/17 06:38:42;;;;;;;17.77;12.13;;;26.60;99.90;;;;;;5081880;28;20510;-72
2023/08/17 06:41:08;;;;;;;19.77;12.57;;;26.60;99.90;;;;;;5094627;27;20815;-72
2023/08/17 06:43:34;;;;;;;18.67;12.73;;;26.70;99.90;;;;;;5063654;28;20396;-72
2023/08/17 06:46:01;;;;;;;21.00;12.00;;;26.80;99.90;;;;;;5078860;28;20459;-72
2023/08/17 06:48:28;;;;;;;20.10;12.52;;;26.80;99.90;;;;;;5084896;28;20405;-72
2023/08/17 06:50:54;;;;;;;19.92;12.95;;;26.80;99.90;;;;;;5089283;28;20493;-73
2023/08/17 06:53:21;;;;;;;20.07;11.53;;;26.90;99.90;;;;;;5076623;28;20420;-72
2023/08/17 06:55:48;;;;;;;21.17;12.48;;;26.90;99.90;;;;;;5078366;28;20444;-72
2023/08/17 06:58:14;;;;;;;19.67;12.20;;;27.00;99.90;;;;;;5082290;28;20435;-72
2023/08/17 07:00:41;;;;;;;17.48;11.50;;;27.00;99.90;;;;;;5077431;28;20907;-72
2023/08/17 07:03:08;;;;;;;18.80;11.88;;;27.10;99.90;;;;;;5099142;28;20404;-72
2023/08/17 07:05:34;;;;;;;19.65;11.65;;;27.10;99.90;;;;;;5077556;28;20413;-72
2023/08/17 07:08:01;;;;;;;16.70;12.25;;;27.20;99.90;;;;;;5060805;28;20425;-72
2023/08/17 07:10:28;;;;;;;20.85;11.88;;;27.30;99.90;;;;;;5065417;28;20423;-73
2023/08/17 07:12:55;;;;;;;21.88;11.98;;;27.30;99.90;;;;;;5096852;28;20430;-72
2023/08/17 07:15:21;;;;;;;17.95;11.52;;;27.40;99.90;;;;;;5077795;28;20555;-72
2023/08/17 07:17:47;;;;;;;16.50;11.52;;;27.40;99.90;;;;;;5082171;28;20717;-72
2023/08/17 07:20:14;;;;;;;19.08;12.15;;;27.40;99.90;;;;;;5071363;28;20936;-72
2023/08/17 07:22:44;;;;;;;17.77;11.80;;;27.50;99.90;;;;;;5070227;28;20401;-72
2023/08/17 07:25:10;;;;;;;18.70;12.05;;;27.60;99.90;;;;;;5094851;28;20456;-72
2023/08/17 07:27:36;;;;;;;17.33;11.65;;;27.60;99.90;;;;;;5076792;28;20412;-72
2023/08/17 07:30:04;;;;;;;18.90;11.50;;;27.70;99.90;;;;;;5076931;28;20425;-72
2023/08/17 07:32:30;;;;;;;17.95;10.95;;;27.70;99.90;;;;;;5094594;28;20421;-72
2023/08/17 07:34:56;;;;;;;17.67;11.85;;;27.80;99.90;;;;;;5073793;28;20418;-72
2023/08/17 07:37:23;;;;;;;15.27;11.23;;;27.80;99.90;;;;;;5075790;28;20848;-72
2023/08/17 07:39:49;;;;;;;16.10;11.20;;;27.90;99.90;;;;;;5098168;28;20400;-72
2023/08/17 07:42:15;;;;;;;20.75;11.38;;;28.00;99.90;;;;;;5064245;28;20493;-72
2023/08/17 07:44:42;;;;;;;18.23;10.80;;;28.10;99.90;;;;;;5076948;28;20407;-72
2023/08/17 07:47:08;;;;;;;16.27;11.00;;;28.10;99.90;;;;;;5080197;28;20537;-73
2023/08/17 07:49:34;;;;;;;16.73;10.30;;;28.20;99.90;;;;;;5075956;28;20736;-72
2023/08/17 07:52:01;;;;;;;20.05;11.02;;;28.30;99.90;;;;;;5067645;28;20411;-72
2023/08/17 07:54:28;;;;;;;18.33;10.68;;;28.40;99.90;;;;;;5076222;28;20530;-72
2023/08/17 07:56:55;;;;;;;16.48;10.73;;;28.40;99.90;;;;;;5084122;28;20415;-72
2023/08/17 07:59:21;;;;;;;16.95;10.15;;;28.40;99.90;;;;;;5085848;28;20404;-72
2023/08/17 08:01:47;;;;;;;13.90;10.00;;;28.50;99.90;;;;;;5063142;28;20405;-72
2023/08/17 08:04:13;;;;;;;13.90;9.60;;;28.50;99.90;;;;;;5073487;28;20414;-72
2023/08/17 08:06:40;;;;;;;17.02;10.20;;;28.60;99.90;;;;;;5063350;28;20934;-73
2023/08/17 08:09:07;;;;;;;15.13;9.60;;;28.70;99.90;;;;;;5089075;28;20674;-70
2023/08/17 08:11:36;;;;;;;18.17;10.18;;;28.70;99.90;;;;;;5095617;28;20420;-71
2023/08/17 08:14:03;;;;;;;18.55;10.50;;;28.80;99.90;;;;;;5089180;28;20414;-70
2023/08/17 08:16:30;;;;;;;18.23;10.80;;;28.90;99.90;;;;;;5073883;28;20927;-71
2023/08/17 08:19:05;;;;;;;14.30;10.20;;;28.90;99.90;;;;;;5075729;28;20424;-71
2023/08/17 08:21:32;;;;;;;16.27;9.70;;;29.00;99.90;;;;;;5079696;28;20786;-72
2023/08/17 08:23:58;;;;;;;16.95;10.07;;;29.10;99.90;;;;;;5096539;28;20419;-72
2023/08/17 08:26:25;;;;;;;17.83;10.20;;;29.10;99.90;;;;;;5080682;28;20410;-71
2023/08/17 08:28:51;;;;;;;12.93;9.65;;;29.20;99.90;;;;;;5070192;28;20446;-71
2023/08/17 08:31:18;;;;;;;15.15;9.93;;;29.20;99.90;;;;;;5067039;28;21031;-70
2023/08/17 08:33:48;;;;;;;14.88;10.15;;;29.30;99.90;;;;;;5069104;28;20412;-70
2023/08/17 08:36:14;;;;;;;16.40;10.15;;;29.40;99.90;;;;;;5099704;28;20904;-73
2023/08/17 08:38:53;;;;;;;15.70;10.40;;;29.40;99.90;;;;;;5071907;27;20908;-73
2023/08/17 08:41:21;;;;;;;15.93;10.27;;;29.50;99.90;;;;;;5100863;28;20398;-73
2023/08/17 08:43:48;;;;;;;17.95;10.10;;;29.50;99.90;;;;;;5091984;28;20408;-73
2023/08/17 08:46:20;;;;;;;15.48;10.18;;;29.60;99.90;;;;;;5084497;28;20407;-70
2023/08/17 08:48:52;;;;;;;15.55;10.23;;;29.60;99.90;;;;;;5076394;28;20472;-70
2023/08/17 08:51:28;;;;;;;20.50;10.73;;;29.60;99.90;;;;;;5095929;28;20581;-71
2023/08/17 08:54:03;;;;;;;15.68;10.27;;;29.70;99.90;;;;;;5082899;28;20476;-70
2023/08/17 08:56:34;;;;;;;18.80;10.75;;;29.80;99.90;;;;;;5092245;28;20494;-70
2023/08/17 08:59:03;;;;;;;17.80;10.38;;;29.90;99.90;;;;;;5077271;28;20979;-70
2023/08/17 09:01:32;;;;;;;16.33;10.30;;;29.90;99.90;;;;;;5077244;28;20428;-71
2023/08/17 09:04:02;;;;;;;18.00;10.13;;;30.00;99.90;;;;;;5083602;28;20447;-71
2023/08/17 09:06:31;;;;;;;14.27;10.23;;;30.00;99.90;;;;;;5096913;28;20929;-71
2023/08/17 09:09:02;;;;;;;16.52;10.43;;;30.10;99.90;;;;;;5092762;28;20475;-71
2023/08/17 09:11:30;;;;;;;19.35;10.75;;;30.10;99.90;;;;;;5095166;27;20427;-70
2023/08/17 09:13:56;;;;;;;16.15;9.95;;;30.10;99.90;;;;;;5076888;28;20459;-71
2023/08/17 09:16:22;;;;;;;18.30;10.48;;;30.20;99.90;;;;;;5098298;28;20569;-71
2023/08/17 09:18:49;;;;;;;15.73;10.23;;;30.20;99.90;;;;;;5095559;28;20972;-71
2023/08/17 09:21:25;;;;;;;18.13;10.23;;;30.30;99.90;;;;;;5095426;28;20414;-71
2023/08/17 09:23:55;;;;;;;17.58;10.18;;;30.30;99.90;;;;;;5076495;28;20415;-73
2023/08/17 09:26:24;;;;;;;18.45;10.82;;;30.40;99.90;;;;;;5096545;28;20450;-72
2023/08/17 09:28:58;;;;;;;15.25;10.40;;;30.40;99.90;;;;;;5067864;28;20445;-72
2023/08/17 09:31:25;;;;;;;16.77;10.52;;;30.50;99.90;;;;;;5106550;27;21066;-72
2023/08/17 09:33:52;;;;;;;17.83;10.63;;;30.50;99.90;;;;;;5090449;27;20412;-72
2023/08/17 09:36:23;;;;;;;17.50;10.20;;;30.60;99.90;;;;;;5093630;28;20473;-72
2023/08/17 09:38:52;;;;;;;17.55;10.20;;;30.70;99.90;;;;;;5095736;28;20485;-72
2023/08/17 09:41:19;;;;;;;15.52;9.43;;;30.70;99.90;;;;;;5092408;28;20453;-72
2023/08/17 09:43:47;;;;;;;19.30;10.35;;;30.80;99.90;;;;;;5098584;28;20809;-72
2023/08/17 09:46:14;;;;;;;18.92;10.35;;;30.90;99.90;;;;;;5080054;28;20861;-72
2023/08/17 09:48:46;;;;;;;17.35;9.98;;;31.00;99.90;;;;;;5114455;27;20902;-72
2023/08/17 09:51:16;;;;;;;20.38;10.20;;;31.10;99.90;;;;;;5088995;28;20477;-72
2023/08/17 09:53:43;;;;;;;14.48;9.73;;;31.20;99.90;;;;;;5068350;28;20443;-72
2023/08/17 09:56:12;;;;;;;17.58;9.93;;;31.10;99.90;;;;;;5092430;28;20416;-72
2023/08/17 09:58:39;;;;;;;19.13;10.48;;;31.20;99.90;;;;;;5093707;28;20495;-72
2023/08/17 10:01:06;;;;;;;17.58;9.82;;;31.20;99.90;;;;;;5084798;28;20913;-72
2023/08/17 10:03:43;;;;;;;16.87;9.60;;;31.20;99.90;;;;;;5073830;28;20427;-72
2023/08/17 10:06:13;;;;;;;14.35;9.45;;;31.30;99.90;;;;;;5074124;28;20419;-72
2023/08/17 10:08:46;;;;;;;16.35;10.38;;;31.40;99.90;;;;;;5091824;28;20428;-72
2023/08/17 10:11:20;;;;;;;16.45;9.95;;;31.40;99.90;;;;;;5084282;28;20412;-72
2023/08/17 10:13:52;;;;;;;18.83;10.15;;;31.40;99.90;;;;;;5080096;28;20407;-72
2023/08/17 10:16:24;;;;;;;16.27;10.30;;;31.40;99.90;;;;;;5103046;27;20505;-72
2023/08/17 10:19:12;;;;;;;17.08;9.77;;;31.50;99.90;;;;;;5077519;28;20407;-72
2023/08/17 10:21:52;;;;;;;17.10;10.00;;;31.50;99.90;;;;;;5077519;28;20497;-72
2023/08/17 10:24:19;;;;;;;17.97;9.63;;;31.40;99.90;;;;;;5093828;28;21139;-72
2023/08/17 10:26:47;;;;;;;17.45;10.07;;;31.50;99.90;;;;;;5094150;28;20418;-72
2023/08/17 10:29:14;;;;;;;18.67;10.00;;;31.40;99.90;;;;;;5059679;28;20404;-72
2023/08/17 10:31:48;;;;;;;18.52;10.50;;;31.40;99.90;;;;;;5063130;28;20405;-72
2023/08/17 10:34:15;;;;;;;16.23;9.87;;;31.40;99.90;;;;;;5089342;28;20410;-73
2023/08/17 10:36:44;;;;;;;14.68;9.50;;;31.30;99.90;;;;;;5073848;28;20485;-73
2023/08/17 10:39:28;;;;;;;17.73;10.00;;;31.40;99.90;;;;;;5090082;28;21093;-73
2023/08/17 10:41:55;;;;;;;18.73;10.20;;;31.40;99.90;;;;;;5079193;28;20404;-72
2023/08/17 10:44:46;;;;;;;15.07;10.05;;;31.40;99.90;;;;;;5095088;28;20902;-72
2023/08/17 10:47:24;;;;;;;16.85;10.38;;;31.40;99.90;;;;;;5096969;28;20475;-73
2023/08/17 10:49:57;;;;;;;17.87;9.97;;;31.40;99.90;;;;;;5066426;28;20409;-73
2023/08/17 10:52:33;;;;;;;18.20;10.20;;;31.40;99.90;;;;;;5081984;28;20447;-73
2023/08/17 10:55:11;;;;;;;19.63;10.35;;;31.50;99.90;;;;;;5082110;28;20412;-73
2023/08/17 10:57:40;;;;;;;17.70;10.63;;;31.50;99.90;;;;;;5087100;28;20392;-72
2023/08/17 11:00:27;;;;;;;19.42;10.50;;;31.50;99.90;;;;;;5076132;28;20389;-73
2023/08/17 11:03:08;;;;;;;22.98;10.65;;;31.50;99.90;;;;;;5092640;27;20402;-72
2023/08/17 11:05:53;;;;;;;18.63;10.43;;;31.50;99.90;;;;;;5073632;28;20401;-72
2023/08/17 11:08:55;;;;;;;16.43;10.30;;;31.50;99.90;;;;;;5067245;28;20482;-72
2023/08/17 11:11:23;;;;;;;17.25;10.63;;;31.50;99.90;;;;;;5087644;28;20910;-72
2023/08/17 11:13:50;;;;;;;19.77;11.30;;;31.60;99.90;;;;;;5089166;28;20890;-72
2023/08/17 11:16:20;;;;;;;18.08;11.15;;;31.60;99.90;;;;;;5090997;28;20440;-72
2023/08/17 11:18:49;;;;;;;18.15;10.80;;;31.60;99.90;;;;;;5058150;28;20921;-72
2023/08/17 11:21:16;;;;;;;22.65;11.45;;;31.60;99.90;;;;;;5076781;28;20396;-72
2023/08/17 11:23:43;;;;;;;18.70;10.77;;;31.60;99.90;;;;;;5075843;28;20409;-72
2023/08/17 11:26:09;;;;;;;15.95;10.93;;;31.60;99.90;;;;;;5071187;28;20398;-72
2023/08/17 11:28:36;;;;;;;17.20;11.10;;;31.60;99.90;;;;;;5087758;28;20985;-72
2023/08/17 11:31:11;;;;;;;15.63;9.77;;;31.60;99.90;;;;;;5077628;28;20515;-72
2023/08/17 11:33:39;;;;;;;19.83;10.97;;;31.50;99.90;;;;;;5076242;28;20408;-72
2023/08/17 11:36:08;;;;;;;17.10;10.83;;;31.60;99.90;;;;;;5096566;28;20434;-72
2023/08/17 11:38:38;;;;;;;18.48;11.05;;;31.70;99.90;;;;;;5092733;28;20427;-73
2023/08/17 11:41:05;;;;;;;17.27;10.07;;;31.70;99.90;;;;;;5071677;28;20819;-73
2023/08/17 11:43:33;;;;;;;17.38;10.57;;;31.70;99.90;;;;;;5094708;28;20403;-72
2023/08/17 11:46:01;;;;;;;19.40;10.85;;;31.80;99.90;;;;;;5090251;28;20504;-72
2023/08/17 11:48:30;;;;;;;17.42;10.85;;;31.90;99.90;;;;;;5074074;28;21098;-72
2023/08/17 11:50:57;;;;;;;20.23;11.17;;;31.90;99.90;;;;;;5078145;28;20396;-72
2023/08/17 11:53:24;;;;;;;17.77;10.88;;;31.90;99.90;;;;;;5093176;28;20473;-72
2023/08/17 11:55:51;;;;;;;18.75;11.23;;;31.90;99.90;;;;;;5093817;28;20423;-72
2023/08/17 11:58:18;;;;;;;20.83;11.68;;;31.90;99.90;;;;;;5076386;28;20405;-72
2023/08/17 12:00:45;;;;;;;18.20;11.30;;;31.90;99.90;;;;;;5096047;28;20942;-72
2023/08/17 12:03:16;;;;;;;21.00;11.63;;;31.90;99.90;;;;;;5103720;27;20405;-72
2023/08/17 12:05:45;;;;;;;18.95;11.18;;;31.90;99.90;;;;;;5096125;28;20412;-73
2023/08/17 12:08:17;;;;;;;18.15;10.85;;;31.90;99.90;;;;;;5094842;28;20424;-72
2023/08/17 12:10:45;;;;;;;20.35;11.23;;;31.80;99.90;;;;;;5092410;27;20437;-72
2023/08/17 12:13:13;;;;;;;20.08;11.07;;;31.80;99.90;;;;;;5094768;28;20902;-72
2023/08/17 12:15:40;;;;;;;21.15;12.00;;;31.70;99.90;;;;;;5098653;28;20495;-72
2023/08/17 12:18:06;;;;;;;17.00;11.40;;;31.70;99.90;;;;;;5065428;28;20432;-72
2023/08/17 12:20:36;;;;;;;21.30;11.38;;;31.70;99.90;;;;;;5092572;28;20820;-72
2023/08/17 12:23:03;;;;;;;21.42;11.00;;;31.70;99.90;;;;;;5080371;28;20434;-72
2023/08/17 12:25:30;;;;;;;19.27;10.60;;;31.70;99.90;;;;;;5078026;28;20398;-72
2023/08/17 12:28:00;;;;;;;17.85;11.32;;;31.60;99.90;;;;;;5079748;28;20422;-72
2023/08/17 12:30:36;;;;;;;17.85;11.30;;;31.70;99.90;;;;;;5083191;28;20427;-72
2023/08/17 12:33:02;;;;;;;17.95;11.60;;;31.70;99.90;;;;;;5099560;28;20411;-72
2023/08/17 12:35:32;;;;;;;18.83;11.18;;;31.70;99.90;;;;;;5104622;28;20511;-72
2023/08/17 12:37:58;;;;;;;18.42;10.90;;;31.70;99.90;;;;;;5079715;28;21001;-72
2023/08/17 12:40:25;;;;;;;18.37;11.30;;;31.70;99.90;;;;;;5090969;28;20792;-72
2023/08/17 12:42:51;;;;;;;19.63;11.30;;;31.70;99.90;;;;;;5063205;28;20896;-72